sensor_id;sensor_type;location;lat;lon;timestamp;pressure;altitude;pressure_sealevel;temperature;humidity
12801;BME280;6464;42.494;27.470;2022-09-25T04:06:24;101702.56;;;9.19;100.00
12801;BME280;6464;42.494;27.470;2022-09-25T04:09:37;101758.81;;;9.58;100.00
12801;BME280;6464;42.494;27.470;2022-09-25T04:12:36;101839.69;;;10.04;100.00
12801;BME280;6464;42.494;27.470;2022-09-25T04:15:30;101659.50;;;8.95;100.00
12801;BME280;6464;42.494;27.470;2022-09-25T04:18:54;101735.06;;;9.45;100.00
12801;BME280;6464;42.494;27.470;2022-09-25T04:21:54;101648.09;;;8.99;100.00
12801;BME280;6464;42.494;27.470;2022-09-25T04:28:07;101720.13;;;9.32;100.00
12801;BME280;6464;42.494;27.470;2022-09-25T04:31:00;101759.72;;;9.67;100.00
12801;BME280;6464;42.494;27.470;2022-09-25T04:34:01;101838.00;;;10.31;100.00
12801;BME280;6464;42.494;27.470;2022-09-25T04:41:37;101649.03;;;9.32;100.00
12801;BME280;6464;42.494;27.470;2022-09-25T04:44:04;101642.03;;;9.39;100.00
12801;BME280;6464;42.494;27.470;2022-09-25T04:47:07;101756.22;;;10.03;100.00
12801;BME280;6464;42.494;27.470;2022-09-25T04:50:03;101723.72;;;10.01;100.00
12801;BME280;6464;42.494;27.470;2022-09-25T04:52:56;101864.34;;;10.86;100.00
12801;BME280;6464;42.494;27.470;2022-09-25T04:55:58;101744.81;;;10.18;100.00
12801;BME280;6464;42.494;27.470;2022-09-25T04:58:50;101872.28;;;10.89;100.00
12801;BME280;6464;42.494;27.470;2022-09-25T05:01:41;101873.13;;;10.91;100.00
12801;BME280;6464;42.494;27.470;2022-09-25T05:04:49;101869.63;;;10.91;100.00
12801;BME280;6464;42.494;27.470;2022-09-25T05:08:04;101695.59;;;10.00;100.00
12801;BME280;6464;42.494;27.470;2022-09-25T05:14:07;101766.78;;;10.46;100.00
12801;BME280;6464;42.494;27.470;2022-09-25T05:17:21;101736.91;;;10.50;100.00
12801;BME280;6464;42.494;27.470;2022-09-25T05:20:09;101848.41;;;11.26;100.00
12801;BME280;6464;42.494;27.470;2022-09-25T05:22:37;101726.34;;;10.47;100.00
12801;BME280;6464;42.494;27.470;2022-09-25T05:25:06;101860.72;;;11.30;100.00
12801;BME280;6464;42.494;27.470;2022-09-25T05:27:34;101808.91;;;10.97;100.00
12801;BME280;6464;42.494;27.470;2022-09-25T05:30:01;101859.81;;;11.42;100.00
12801;BME280;6464;42.494;27.470;2022-09-25T05:32:28;101914.22;;;11.96;100.00
12801;BME280;6464;42.494;27.470;2022-09-25T05:34:56;101875.53;;;11.80;100.00
12801;BME280;6464;42.494;27.470;2022-09-25T05:37:25;101941.50;;;12.03;100.00
12801;BME280;6464;42.494;27.470;2022-09-25T05:39:52;101757.88;;;10.99;100.00
12801;BME280;6464;42.494;27.470;2022-09-25T05:42:19;101801.78;;;11.25;100.00
12801;BME280;6464;42.494;27.470;2022-09-25T05:44:46;101949.44;;;12.03;100.00
12801;BME280;6464;42.494;27.470;2022-09-25T05:47:13;101956.53;;;11.99;100.00
12801;BME280;6464;42.494;27.470;2022-09-25T05:49:40;101806.25;;;11.07;100.00
12801;BME280;6464;42.494;27.470;2022-09-25T05:52:07;101860.66;;;11.53;100.00
12801;BME280;6464;42.494;27.470;2022-09-25T05:54:36;101914.28;;;11.78;100.00
12801;BME280;6464;42.494;27.470;2022-09-25T05:57:03;101844.00;;;11.34;100.00
12801;BME280;6464;42.494;27.470;2022-09-25T05:59:31;101868.63;;;11.35;100.00
12801;BME280;6464;42.494;27.470;2022-09-25T06:01:59;101863.34;;;11.36;100.00
12801;BME280;6464;42.494;27.470;2022-09-25T06:04:26;101823.75;;;11.33;100.00
12801;BME280;6464;42.494;27.470;2022-09-25T06:06:53;101924.75;;;12.02;100.00
12801;BME280;6464;42.494;27.470;2022-09-25T06:09:21;101885.19;;;11.90;100.00
12801;BME280;6464;42.494;27.470;2022-09-25T06:11:49;101869.31;;;11.79;100.00
12801;BME280;6464;42.494;27.470;2022-09-25T06:14:18;101851.81;;;11.58;100.00
12801;BME280;6464;42.494;27.470;2022-09-25T06:16:46;102030.16;;;12.74;100.00
12801;BME280;6464;42.494;27.470;2022-09-25T06:19:16;101907.94;;;12.13;100.00
12801;BME280;6464;42.494;27.470;2022-09-25T06:21:47;101995.75;;;12.71;100.00
12801;BME280;6464;42.494;27.470;2022-09-25T06:24:20;101961.31;;;12.76;100.00
12801;BME280;6464;42.494;27.470;2022-09-25T06:26:52;101999.03;;;13.08;100.00
12801;BME280;6464;42.494;27.470;2022-09-25T06:29:23;101907.53;;;12.71;100.00
12801;BME280;6464;42.494;27.470;2022-09-25T06:31:51;102053.28;;;13.68;100.00
12801;BME280;6464;42.494;27.470;2022-09-25T06:34:28;101982.25;;;13.11;100.00
12801;BME280;6464;42.494;27.470;2022-09-25T06:36:59;102054.16;;;13.67;100.00
12801;BME280;6464;42.494;27.470;2022-09-25T06:39:26;101966.94;;;13.42;100.00
12801;BME280;6464;42.494;27.470;2022-09-25T06:41:59;101919.34;;;13.33;100.00
12801;BME280;6464;42.494;27.470;2022-09-25T06:44:27;102063.38;;;14.15;100.00
12801;BME280;6464;42.494;27.470;2022-09-25T06:46:54;101955.06;;;13.77;100.00
12801;BME280;6464;42.494;27.470;2022-09-25T06:49:24;102019.00;;;14.28;100.00
12801;BME280;6464;42.494;27.470;2022-09-25T06:52:04;102071.03;;;14.41;100.00
12801;BME280;6464;42.494;27.470;2022-09-25T06:54:32;102004.84;;;14.26;100.00
12801;BME280;6464;42.494;27.470;2022-09-25T06:57:01;101944.09;;;14.06;100.00
12801;BME280;6464;42.494;27.470;2022-09-25T06:59:29;102102.03;;;15.05;100.00
12801;BME280;6464;42.494;27.470;2022-09-25T07:01:58;102067.41;;;15.08;100.00
12801;BME280;6464;42.494;27.470;2022-09-25T07:04:45;102032.28;;;14.91;100.00
12801;BME280;6464;42.494;27.470;2022-09-25T07:07:17;102001.91;;;14.52;100.00
12801;BME280;6464;42.494;27.470;2022-09-25T07:09:47;102112.50;;;15.70;100.00
12801;BME280;6464;42.494;27.470;2022-09-25T07:12:16;102021.38;;;15.09;100.00
12801;BME280;6464;42.494;27.470;2022-09-25T07:14:44;101949.94;;;14.91;100.00
12801;BME280;6464;42.494;27.470;2022-09-25T07:17:14;102056.78;;;15.62;100.00
12801;BME280;6464;42.494;27.470;2022-09-25T07:36:16;102020.41;;;16.11;100.00
12801;BME280;6464;42.494;27.470;2022-09-25T07:38:47;102117.44;;;16.83;100.00
12801;BME280;6464;42.494;27.470;2022-09-25T07:41:29;102162.28;;;17.41;100.00
12801;BME280;6464;42.494;27.470;2022-09-25T07:44:11;102033.88;;;16.85;100.00
12801;BME280;6464;42.494;27.470;2022-09-25T07:46:45;102108.50;;;17.58;100.00
12801;BME280;6464;42.494;27.470;2022-09-25T07:49:17;102165.69;;;17.84;100.00
12801;BME280;6464;42.494;27.470;2022-09-25T07:52:11;102191.22;;;18.28;100.00
12801;BME280;6464;42.494;27.470;2022-09-25T07:54:41;102183.47;;;18.17;100.00
12801;BME280;6464;42.494;27.470;2022-09-25T07:57:11;102058.72;;;17.57;100.00
12801;BME280;6464;42.494;27.470;2022-09-25T07:59:41;102036.34;;;17.63;100.00
12801;BME280;6464;42.494;27.470;2022-09-25T08:02:09;102029.84;;;17.75;100.00
12801;BME280;6464;42.494;27.470;2022-09-25T08:04:37;102049.22;;;17.81;100.00
12801;BME280;6464;42.494;27.470;2022-09-25T08:07:18;102032.38;;;18.10;100.00
12801;BME280;6464;42.494;27.470;2022-09-25T08:20:13;102039.44;;;19.00;100.00
12801;BME280;6464;42.494;27.470;2022-09-25T08:28:21;102111.28;;;19.92;100.00
12801;BME280;6464;42.494;27.470;2022-09-25T08:30:49;102052.44;;;19.90;100.00
12801;BME280;6464;42.494;27.470;2022-09-25T08:33:17;102214.53;;;21.22;100.00
12801;BME280;6464;42.494;27.470;2022-09-25T08:35:56;102233.22;;;21.49;100.00
12801;BME280;6464;42.494;27.470;2022-09-25T08:38:24;102212.28;;;21.12;100.00
12801;BME280;6464;42.494;27.470;2022-09-25T08:41:02;102206.53;;;20.99;100.00
12801;BME280;6464;42.494;27.470;2022-09-25T08:43:39;102101.03;;;20.53;100.00
12801;BME280;6464;42.494;27.470;2022-09-25T08:46:16;102118.56;;;21.07;100.00
12801;BME280;6464;42.494;27.470;2022-09-25T08:49:01;102078.69;;;20.98;100.00
12801;BME280;6464;42.494;27.470;2022-09-25T08:51:31;102217.13;;;22.33;100.00
12801;BME280;6464;42.494;27.470;2022-09-25T08:54:01;102135.56;;;22.35;100.00
12801;BME280;6464;42.494;27.470;2022-09-25T08:56:29;102173.16;;;22.55;100.00
12801;BME280;6464;42.494;27.470;2022-09-25T08:59:09;102175.13;;;21.24;100.00
12801;BME280;6464;42.494;27.470;2022-09-25T09:01:49;102131.31;;;21.24;100.00
12801;BME280;6464;42.494;27.470;2022-09-25T09:04:24;102182.22;;;22.73;100.00
12801;BME280;6464;42.494;27.470;2022-09-25T09:06:56;102183.50;;;23.95;100.00
12801;BME280;6464;42.494;27.470;2022-09-25T09:09:27;102206.25;;;26.31;100.00
12801;BME280;6464;42.494;27.470;2022-09-25T09:11:59;102225.50;;;27.95;100.00
12801;BME280;6464;42.494;27.470;2022-09-25T09:14:32;102299.94;;;29.08;100.00
12801;BME280;6464;42.494;27.470;2022-09-25T09:17:07;102301.97;;;30.28;100.00
12801;BME280;6464;42.494;27.470;2022-09-25T09:19:40;102291.00;;;30.40;100.00
12801;BME280;6464;42.494;27.470;2022-09-25T09:22:09;102299.19;;;30.87;100.00
12801;BME280;6464;42.494;27.470;2022-09-25T09:24:50;102275.25;;;30.79;100.00
12801;BME280;6464;42.494;27.470;2022-09-25T09:27:29;102327.09;;;33.97;100.00
12801;BME280;6464;42.494;27.470;2022-09-25T09:30:13;102341.59;;;36.15;100.00
12801;BME280;6464;42.494;27.470;2022-09-25T09:33:06;102343.69;;;37.00;100.00
12801;BME280;6464;42.494;27.470;2022-09-25T09:35:43;102307.16;;;35.57;100.00
12801;BME280;6464;42.494;27.470;2022-09-25T09:38:21;102208.69;;;31.81;100.00
12801;BME280;6464;42.494;27.470;2022-09-25T09:41:12;102240.31;;;32.58;100.00
12801;BME280;6464;42.494;27.470;2022-09-25T09:43:50;102223.47;;;32.73;100.00
12801;BME280;6464;42.494;27.470;2022-09-25T09:46:29;102219.16;;;33.90;100.00
12801;BME280;6464;42.494;27.470;2022-09-25T09:49:04;102237.38;;;33.41;100.00
12801;BME280;6464;42.494;27.470;2022-09-25T09:51:39;102224.44;;;32.93;100.00
12801;BME280;6464;42.494;27.470;2022-09-25T09:54:12;102153.00;;;31.08;100.00
12801;BME280;6464;42.494;27.470;2022-09-25T09:56:42;102229.25;;;33.90;100.00
12801;BME280;6464;42.494;27.470;2022-09-25T09:59:14;102265.72;;;35.96;100.00
12801;BME280;6464;42.494;27.470;2022-09-25T10:01:45;102225.47;;;33.52;100.00
12801;BME280;6464;42.494;27.470;2022-09-25T10:04:16;102184.94;;;31.40;100.00
12801;BME280;6464;42.494;27.470;2022-09-25T10:06:50;102216.94;;;34.89;100.00
12801;BME280;6464;42.494;27.470;2022-09-25T10:09:18;102196.03;;;32.54;100.00
12801;BME280;6464;42.494;27.470;2022-09-25T10:11:48;102116.00;;;30.94;100.00
12801;BME280;6464;42.494;27.470;2022-09-25T10:14:20;102184.59;;;33.00;100.00
12801;BME280;6464;42.494;27.470;2022-09-25T10:16:49;102221.63;;;34.03;100.00
12801;BME280;6464;42.494;27.470;2022-09-25T10:19:19;102167.47;;;31.95;100.00
12801;BME280;6464;42.494;27.470;2022-09-25T10:21:50;102230.13;;;35.59;100.00
12801;BME280;6464;42.494;27.470;2022-09-25T10:24:46;102265.53;;;37.53;100.00
12801;BME280;6464;42.494;27.470;2022-09-25T10:27:21;102269.84;;;39.34;100.00
12801;BME280;6464;42.494;27.470;2022-09-25T10:30:04;102232.19;;;36.88;100.00
12801;BME280;6464;42.494;27.470;2022-09-25T10:32:34;102248.00;;;37.79;100.00
12801;BME280;6464;42.494;27.470;2022-09-25T10:35:13;102245.44;;;38.51;100.00
12801;BME280;6464;42.494;27.470;2022-09-25T10:37:40;102240.19;;;38.72;100.00
12801;BME280;6464;42.494;27.470;2022-09-25T10:40:24;102233.75;;;39.36;100.00
12801;BME280;6464;42.494;27.470;2022-09-25T10:43:02;102254.38;;;40.63;100.00
12801;BME280;6464;42.494;27.470;2022-09-25T10:45:31;102254.22;;;41.30;100.00
12801;BME280;6464;42.494;27.470;2022-09-25T10:48:00;102244.81;;;40.95;100.00
12801;BME280;6464;42.494;27.470;2022-09-25T10:51:03;102245.66;;;41.25;100.00
12801;BME280;6464;42.494;27.470;2022-09-25T10:53:31;102168.22;;;37.20;100.00
12801;BME280;6464;42.494;27.470;2022-09-25T10:56:02;102180.66;;;38.55;100.00
12801;BME280;6464;42.494;27.470;2022-09-25T10:58:35;102190.06;;;40.61;100.00
12801;BME280;6464;42.494;27.470;2022-09-25T11:01:05;102199.13;;;40.99;100.00
12801;BME280;6464;42.494;27.470;2022-09-25T11:03:49;102183.66;;;40.90;100.00
12801;BME280;6464;42.494;27.470;2022-09-25T11:06:21;102181.69;;;40.69;100.00
12801;BME280;6464;42.494;27.470;2022-09-25T11:08:55;102162.34;;;40.01;100.00
12801;BME280;6464;42.494;27.470;2022-09-25T11:11:23;102137.31;;;38.72;100.00
12801;BME280;6464;42.494;27.470;2022-09-25T11:13:55;102147.91;;;39.76;100.00
12801;BME280;6464;42.494;27.470;2022-09-25T11:16:46;102182.06;;;40.66;100.00
12801;BME280;6464;42.494;27.470;2022-09-25T11:19:18;102148.50;;;39.87;100.00
12801;BME280;6464;42.494;27.470;2022-09-25T11:21:52;102128.84;;;39.67;100.00
12801;BME280;6464;42.494;27.470;2022-09-25T11:24:29;102126.81;;;38.75;100.00
12801;BME280;6464;42.494;27.470;2022-09-25T11:27:05;102150.00;;;40.27;100.00
12801;BME280;6464;42.494;27.470;2022-09-25T11:29:42;102139.09;;;40.84;100.00
12801;BME280;6464;42.494;27.470;2022-09-25T11:32:18;102119.91;;;38.71;100.00
12801;BME280;6464;42.494;27.470;2022-09-25T11:35:03;102119.06;;;39.56;100.00
12801;BME280;6464;42.494;27.470;2022-09-25T11:37:36;102131.66;;;40.85;100.00
12801;BME280;6464;42.494;27.470;2022-09-25T11:40:19;102101.94;;;39.61;100.00
12801;BME280;6464;42.494;27.470;2022-09-25T11:43:11;102076.84;;;39.01;100.00
12801;BME280;6464;42.494;27.470;2022-09-25T11:45:42;102087.47;;;39.36;100.00
12801;BME280;6464;42.494;27.470;2022-09-25T11:48:17;102109.19;;;40.44;100.00
12801;BME280;6464;42.494;27.470;2022-09-25T11:51:00;102052.53;;;37.63;100.00
12801;BME280;6464;42.494;27.470;2022-09-25T11:53:39;102042.56;;;37.53;100.00
12801;BME280;6464;42.494;27.470;2022-09-25T11:56:17;102042.19;;;37.65;100.00
12801;BME280;6464;42.494;27.470;2022-09-25T12:01:44;102055.66;;;38.31;100.00
12801;BME280;6464;42.494;27.470;2022-09-25T12:04:23;102057.50;;;39.32;100.00
12801;BME280;6464;42.494;27.470;2022-09-25T12:07:21;102041.00;;;37.51;100.00
12801;BME280;6464;42.494;27.470;2022-09-25T12:10:18;102036.03;;;37.63;100.00
12801;BME280;6464;42.494;27.470;2022-09-25T12:12:54;102028.28;;;38.22;100.00
12801;BME280;6464;42.494;27.470;2022-09-25T12:15:34;102053.09;;;39.23;100.00
12801;BME280;6464;42.494;27.470;2022-09-25T12:18:11;102059.50;;;40.65;100.00
12801;BME280;6464;42.494;27.470;2022-09-25T12:20:48;102080.88;;;40.42;100.00
12801;BME280;6464;42.494;27.470;2022-09-25T12:23:28;102090.59;;;41.40;100.00
12801;BME280;6464;42.494;27.470;2022-09-25T12:26:08;102080.41;;;41.04;100.00
12801;BME280;6464;42.494;27.470;2022-09-25T12:28:52;102089.13;;;41.72;100.00
12801;BME280;6464;42.494;27.470;2022-09-25T12:31:30;102068.44;;;41.40;100.00
12801;BME280;6464;42.494;27.470;2022-09-25T12:34:15;102090.31;;;42.19;100.00
12801;BME280;6464;42.494;27.470;2022-09-25T12:36:47;102073.38;;;41.44;100.00
12801;BME280;6464;42.494;27.470;2022-09-25T12:39:29;102076.47;;;41.63;100.00
12801;BME280;6464;42.494;27.470;2022-09-25T12:42:04;102061.38;;;41.16;100.00
12801;BME280;6464;42.494;27.470;2022-09-25T12:44:38;102047.69;;;40.42;100.00
12801;BME280;6464;42.494;27.470;2022-09-25T12:47:09;102045.13;;;40.55;100.00
12801;BME280;6464;42.494;27.470;2022-09-25T12:49:44;102027.44;;;40.20;100.00
12801;BME280;6464;42.494;27.470;2022-09-25T12:52:16;102019.25;;;39.44;100.00
12801;BME280;6464;42.494;27.470;2022-09-25T12:54:59;102009.69;;;39.70;100.00
12801;BME280;6464;42.494;27.470;2022-09-25T12:57:33;102012.34;;;39.25;100.00
12801;BME280;6464;42.494;27.470;2022-09-25T13:00:05;102013.59;;;39.61;100.00
12801;BME280;6464;42.494;27.470;2022-09-25T13:02:38;102012.91;;;39.58;100.00
12801;BME280;6464;42.494;27.470;2022-09-25T13:05:09;101978.88;;;38.60;100.00
12801;BME280;6464;42.494;27.470;2022-09-25T13:07:43;101970.56;;;37.89;100.00
12801;BME280;6464;42.494;27.470;2022-09-25T13:10:24;101908.59;;;33.94;100.00
12801;BME280;6464;42.494;27.470;2022-09-25T13:12:55;101907.81;;;34.47;100.00
12801;BME280;6464;42.494;27.470;2022-09-25T13:15:24;101940.72;;;36.64;100.00
12801;BME280;6464;42.494;27.470;2022-09-25T13:17:53;101938.91;;;36.30;100.00
12801;BME280;6464;42.494;27.470;2022-09-25T13:20:51;101930.16;;;35.92;100.00
12801;BME280;6464;42.494;27.470;2022-09-25T13:23:31;101968.25;;;37.21;100.00
12801;BME280;6464;42.494;27.470;2022-09-25T13:26:08;101965.91;;;38.29;100.00
12801;BME280;6464;42.494;27.470;2022-09-25T13:28:39;101972.88;;;38.17;100.00
12801;BME280;6464;42.494;27.470;2022-09-25T13:31:20;101970.56;;;38.28;100.00
12801;BME280;6464;42.494;27.470;2022-09-25T13:33:50;101956.06;;;38.03;100.00
12801;BME280;6464;42.494;27.470;2022-09-25T13:36:39;101957.59;;;38.45;100.00
12801;BME280;6464;42.494;27.470;2022-09-25T13:39:17;101955.06;;;38.36;100.00
12801;BME280;6464;42.494;27.470;2022-09-25T13:42:05;101894.41;;;35.16;100.00
12801;BME280;6464;42.494;27.470;2022-09-25T13:44:49;101834.88;;;31.92;100.00
12801;BME280;6464;42.494;27.470;2022-09-25T13:47:50;101826.41;;;32.15;100.00
12801;BME280;6464;42.494;27.470;2022-09-25T13:50:30;101823.00;;;32.13;100.00
12801;BME280;6464;42.494;27.470;2022-09-25T13:53:03;101834.09;;;32.69;100.00
12801;BME280;6464;42.494;27.470;2022-09-25T13:55:43;101846.31;;;33.69;100.00
12801;BME280;6464;42.494;27.470;2022-09-25T13:58:58;101825.72;;;32.13;100.00
12801;BME280;6464;42.494;27.470;2022-09-25T14:01:33;101826.75;;;31.81;100.00
12801;BME280;6464;42.494;27.470;2022-09-25T14:04:07;101811.56;;;30.66;100.00
12801;BME280;6464;42.494;27.470;2022-09-25T14:06:35;101780.69;;;31.07;100.00
12801;BME280;6464;42.494;27.470;2022-09-25T14:09:07;101805.72;;;31.43;100.00
12801;BME280;6464;42.494;27.470;2022-09-25T14:11:36;101797.41;;;31.44;100.00
12801;BME280;6464;42.494;27.470;2022-09-25T14:14:07;101820.31;;;32.42;100.00
12801;BME280;6464;42.494;27.470;2022-09-25T14:16:43;101775.41;;;32.35;100.00
12801;BME280;6464;42.494;27.470;2022-09-25T14:19:18;101786.84;;;32.40;100.00
12801;BME280;6464;42.494;27.470;2022-09-25T14:21:46;101803.28;;;31.90;100.00
12801;BME280;6464;42.494;27.470;2022-09-25T14:24:18;101791.91;;;31.14;100.00
12801;BME280;6464;42.494;27.470;2022-09-25T14:26:47;101792.31;;;31.30;100.00
12801;BME280;6464;42.494;27.470;2022-09-25T14:29:18;101759.06;;;30.85;100.00
12801;BME280;6464;42.494;27.470;2022-09-25T14:31:54;101760.97;;;29.99;100.00
12801;BME280;6464;42.494;27.470;2022-09-25T14:34:38;101768.59;;;29.73;100.00
12801;BME280;6464;42.494;27.470;2022-09-25T14:37:26;101773.75;;;30.52;100.00
12801;BME280;6464;42.494;27.470;2022-09-25T14:40:02;101750.47;;;28.95;100.00
12801;BME280;6464;42.494;27.470;2022-09-25T14:45:56;101768.47;;;30.71;100.00
12801;BME280;6464;42.494;27.470;2022-09-25T14:48:27;101785.69;;;31.02;100.00
12801;BME280;6464;42.494;27.470;2022-09-25T14:50:56;101780.28;;;30.81;100.00
12801;BME280;6464;42.494;27.470;2022-09-25T14:53:28;101740.44;;;29.74;100.00
12801;BME280;6464;42.494;27.470;2022-09-25T14:55:57;101780.72;;;30.44;100.00
12801;BME280;6464;42.494;27.470;2022-09-25T14:58:28;101693.59;;;28.01;100.00
12801;BME280;6464;42.494;27.470;2022-09-25T15:01:06;101709.47;;;26.31;100.00
12801;BME280;6464;42.494;27.470;2022-09-25T15:03:39;101712.47;;;25.60;100.00
12801;BME280;6464;42.494;27.470;2022-09-25T15:06:06;101595.66;;;23.87;100.00
12801;BME280;6464;42.494;27.470;2022-09-25T15:08:35;101677.50;;;24.00;100.00
12801;BME280;6464;42.494;27.470;2022-09-25T15:11:09;101693.06;;;23.95;100.00
12801;BME280;6464;42.494;27.470;2022-09-25T15:13:37;101618.00;;;23.11;100.00
12801;BME280;6464;42.494;27.470;2022-09-25T15:16:11;101601.09;;;22.60;100.00
12801;BME280;6464;42.494;27.470;2022-09-25T15:18:59;101632.28;;;22.47;100.00
12801;BME280;6464;42.494;27.470;2022-09-25T15:21:29;101620.78;;;22.27;100.00
12801;BME280;6464;42.494;27.470;2022-09-25T15:23:59;101624.56;;;22.23;100.00
12801;BME280;6464;42.494;27.470;2022-09-25T15:26:26;101702.13;;;22.48;100.00
12801;BME280;6464;42.494;27.470;2022-09-25T15:28:54;101628.53;;;21.81;100.00
12801;BME280;6464;42.494;27.470;2022-09-25T15:31:23;101626.63;;;21.66;100.00
12801;BME280;6464;42.494;27.470;2022-09-25T15:34:03;101599.19;;;21.42;100.00
12801;BME280;6464;42.494;27.470;2022-09-25T15:36:34;101616.75;;;21.30;100.00
12801;BME280;6464;42.494;27.470;2022-09-25T15:39:08;101624.66;;;21.34;100.00
12801;BME280;6464;42.494;27.470;2022-09-25T15:41:38;101643.78;;;21.45;100.00
12801;BME280;6464;42.494;27.470;2022-09-25T15:44:13;101614.16;;;21.10;100.00
12801;BME280;6464;42.494;27.470;2022-09-25T15:46:45;101587.03;;;20.97;100.00
12801;BME280;6464;42.494;27.470;2022-09-25T15:49:16;101585.00;;;20.84;100.00
12801;BME280;6464;42.494;27.470;2022-09-25T15:51:48;101606.41;;;20.85;100.00
12801;BME280;6464;42.494;27.470;2022-09-25T15:54:31;101599.59;;;20.78;100.00
12801;BME280;6464;42.494;27.470;2022-09-25T15:57:00;101654.69;;;21.04;100.00
12801;BME280;6464;42.494;27.470;2022-09-25T15:59:29;101598.06;;;20.72;100.00
12801;BME280;6464;42.494;27.470;2022-09-25T16:02:08;101580.03;;;20.57;100.00
12801;BME280;6464;42.494;27.470;2022-09-25T16:04:53;101596.31;;;20.52;100.00
12801;BME280;6464;42.494;27.470;2022-09-25T16:07:23;101593.56;;;20.54;100.00
12801;BME280;6464;42.494;27.470;2022-09-25T16:09:51;101604.44;;;20.51;100.00
12801;BME280;6464;42.494;27.470;2022-09-25T16:12:20;101594.84;;;20.45;100.00
12801;BME280;6464;42.494;27.470;2022-09-25T16:14:48;101592.78;;;20.32;100.00
12801;BME280;6464;42.494;27.470;2022-09-25T16:17:22;101660.22;;;20.62;100.00
12801;BME280;6464;42.494;27.470;2022-09-25T16:19:57;101635.84;;;20.47;100.00
12801;BME280;6464;42.494;27.470;2022-09-25T16:22:25;101576.66;;;20.13;100.00
12801;BME280;6464;42.494;27.470;2022-09-25T16:24:52;101632.59;;;20.39;100.00
12801;BME280;6464;42.494;27.470;2022-09-25T16:27:23;101593.88;;;20.07;100.00
12801;BME280;6464;42.494;27.470;2022-09-25T16:29:52;101661.88;;;20.44;100.00
12801;BME280;6464;42.494;27.470;2022-09-25T16:32:22;101674.81;;;20.34;100.00
12801;BME280;6464;42.494;27.470;2022-09-25T16:34:55;101595.44;;;19.92;100.00
12801;BME280;6464;42.494;27.470;2022-09-25T16:37:24;101666.03;;;20.31;100.00
12801;BME280;6464;42.494;27.470;2022-09-25T16:40:20;101554.78;;;19.62;100.00
12801;BME280;6464;42.494;27.470;2022-09-25T16:42:49;101587.97;;;19.79;100.00
12801;BME280;6464;42.494;27.470;2022-09-25T16:45:19;101572.59;;;19.63;100.00
12801;BME280;6464;42.494;27.470;2022-09-25T16:47:50;101586.00;;;19.62;100.00
12801;BME280;6464;42.494;27.470;2022-09-25T16:50:18;101627.97;;;19.82;100.00
12801;BME280;6464;42.494;27.470;2022-09-25T16:52:46;101586.03;;;19.40;100.00
12801;BME280;6464;42.494;27.470;2022-09-25T16:55:17;101566.94;;;19.27;100.00
12801;BME280;6464;42.494;27.470;2022-09-25T16:57:44;101569.00;;;19.20;100.00
12801;BME280;6464;42.494;27.470;2022-09-25T17:00:15;101557.31;;;19.01;100.00
12801;BME280;6464;42.494;27.470;2022-09-25T17:02:44;101656.19;;;19.46;100.00
12801;BME280;6464;42.494;27.470;2022-09-25T17:05:16;101584.03;;;19.01;100.00
12801;BME280;6464;42.494;27.470;2022-09-25T17:07:47;101580.59;;;18.97;100.00
12801;BME280;6464;42.494;27.470;2022-09-25T17:10:16;101575.69;;;18.87;100.00
12801;BME280;6464;42.494;27.470;2022-09-25T17:12:45;101640.38;;;19.18;100.00
12801;BME280;6464;42.494;27.470;2022-09-25T17:15:20;101665.78;;;19.30;100.00
12801;BME280;6464;42.494;27.470;2022-09-25T17:17:49;101630.38;;;19.00;100.00
12801;BME280;6464;42.494;27.470;2022-09-25T17:20:21;101583.69;;;18.63;100.00
12801;BME280;6464;42.494;27.470;2022-09-25T17:22:49;101585.66;;;18.58;100.00
12801;BME280;6464;42.494;27.470;2022-09-25T17:25:35;101627.53;;;18.58;100.00
12801;BME280;6464;42.494;27.470;2022-09-25T17:28:04;101611.78;;;18.50;100.00
12801;BME280;6464;42.494;27.470;2022-09-25T17:30:31;101587.22;;;18.40;100.00
12801;BME280;6464;42.494;27.470;2022-09-25T17:32:58;101625.84;;;18.55;100.00
12801;BME280;6464;42.494;27.470;2022-09-25T17:35:37;101587.84;;;18.23;100.00
12801;BME280;6464;42.494;27.470;2022-09-25T17:38:06;101675.97;;;18.73;100.00
12801;BME280;6464;42.494;27.470;2022-09-25T17:40:33;101599.44;;;18.22;100.00
12801;BME280;6464;42.494;27.470;2022-09-25T17:43:00;101585.53;;;18.14;100.00
12801;BME280;6464;42.494;27.470;2022-09-25T17:45:34;101590.16;;;18.09;100.00
12801;BME280;6464;42.494;27.470;2022-09-25T17:48:02;101609.25;;;18.22;100.00
12801;BME280;6464;42.494;27.470;2022-09-25T17:50:29;101592.06;;;18.06;100.00
12801;BME280;6464;42.494;27.470;2022-09-25T17:53:01;101587.75;;;18.02;100.00
12801;BME280;6464;42.494;27.470;2022-09-25T17:55:29;101681.25;;;18.50;100.00
12801;BME280;6464;42.494;27.470;2022-09-25T17:57:57;101601.97;;;18.02;100.00
12801;BME280;6464;42.494;27.470;2022-09-25T18:00:24;101572.38;;;17.83;100.00
12801;BME280;6464;42.494;27.470;2022-09-25T18:02:51;101650.91;;;18.28;100.00
12801;BME280;6464;42.494;27.470;2022-09-25T18:05:18;101662.50;;;18.27;100.00
12801;BME280;6464;42.494;27.470;2022-09-25T18:07:45;101657.59;;;18.14;100.00
12801;BME280;6464;42.494;27.470;2022-09-25T18:10:13;101611.44;;;17.86;100.00
12801;BME280;6464;42.494;27.470;2022-09-25T18:12:40;101622.81;;;17.91;100.00
12801;BME280;6464;42.494;27.470;2022-09-25T18:15:10;101604.72;;;17.74;100.00
12801;BME280;6464;42.494;27.470;2022-09-25T18:17:37;101622.50;;;17.73;100.00